Terminal Aerodrome Forecast
Issued by NWS

Home | Current Version | Previous Version | Graphics & Text | Print | Product List | Glossary On
Versions: 1 2 3 4 5 6 7 8 9 10 11 12 13 14 15 16 17 18 19 20 21 22 23 24 25 26 27 28 29 30 31 32 33 34
000
FTUS43 KLOT 160300 AAA
TAFDPA
TAF AMD
KDPA 160312Z 1603/1624 13010KT 4SM BR OVC006
      TEMPO 1606/1609 2SM -SHRA OVC004
     FM160900 VRB04KT 6SM BR OVC005
      TEMPO 1609/1613 4SM -SHRA SCT005 OVC013
     FM161500 29011KT 5SM -SHRADZ BR OVC007
     FM161900 31013G22KT P6SM OVC015=

USA.gov is the U.S. government's official web portal to all federal, state and local government web resources and services.